createdAt,value
2023-03-20T00:02:00.220Z,9.80
2023-03-20T00:04:26.928Z,9.70
2023-03-20T00:06:53.600Z,9.70
2023-03-20T00:09:20.215Z,9.70
2023-03-20T00:11:51.807Z,9.70
2023-03-20T00:14:22.441Z,9.80
2023-03-20T00:16:50.171Z,9.70
2023-03-20T00:19:19.651Z,9.70
2023-03-20T00:21:47.799Z,9.70
2023-03-20T00:24:15.837Z,9.70
2023-03-20T00:26:44.333Z,9.70
2023-03-20T00:29:21.679Z,9.60
2023-03-20T00:31:48.896Z,9.60
2023-03-20T00:34:19.261Z,9.70
2023-03-20T00:36:46.442Z,9.60
2023-03-20T00:39:13.387Z,9.70
2023-03-20T00:41:46.240Z,9.60
2023-03-20T00:44:25.344Z,9.60
2023-03-20T00:46:54.712Z,9.70
2023-03-20T00:49:33.323Z,9.70
2023-03-20T00:52:02.107Z,9.70
2023-03-20T00:54:29.140Z,9.60
2023-03-20T00:57:06.806Z,9.60
2023-03-20T00:59:37.197Z,9.60
2023-03-20T01:02:04.245Z,9.60
2023-03-20T01:04:37.225Z,9.60
2023-03-20T01:07:04.668Z,9.60
2023-03-20T01:09:31.379Z,9.60
2023-03-20T01:12:00.664Z,9.60
2023-03-20T01:14:27.315Z,9.60
2023-03-20T01:16:54.071Z,9.60
2023-03-20T01:19:20.947Z,9.60
2023-03-20T01:21:47.603Z,9.60
2023-03-20T01:24:14.209Z,9.60
2023-03-20T01:26:43.279Z,9.60
2023-03-20T01:29:22.222Z,9.70
2023-03-20T01:31:49.921Z,9.70
2023-03-20T01:34:16.834Z,9.60
2023-03-20T01:36:53.015Z,9.50
2023-03-20T01:39:33.447Z,9.60
2023-03-20T01:42:00.833Z,9.60
2023-03-20T01:44:33.165Z,9.60
2023-03-20T01:47:01.406Z,9.50
2023-03-20T01:49:28.627Z,9.50
2023-03-20T01:51:57.104Z,9.40
2023-03-20T01:54:35.758Z,9.50
2023-03-20T01:57:11.318Z,9.50
2023-03-20T01:59:58.595Z,9.50
2023-03-20T02:02:30.272Z,9.50
2023-03-20T02:05:07.004Z,9.50
2023-03-20T02:07:35.938Z,9.50
2023-03-20T02:10:08.173Z,9.40
2023-03-20T02:12:36.296Z,9.30
2023-03-20T02:15:05.395Z,9.30
2023-03-20T02:17:32.774Z,9.30
2023-03-20T02:20:23.005Z,9.30
2023-03-20T02:23:15.844Z,9.30
2023-03-20T02:26:22.272Z,9.30
2023-03-20T02:29:02.558Z,9.30
2023-03-20T02:32:20.601Z,9.30
2023-03-20T02:35:06.063Z,9.20
2023-03-20T02:37:51.903Z,9.30
2023-03-20T02:40:43.615Z,9.30
2023-03-20T02:43:14.722Z,9.30
2023-03-20T02:46:02.193Z,9.30
2023-03-20T02:48:33.842Z,9.30
2023-03-20T02:51:22.313Z,9.20
2023-03-20T02:54:02.527Z,9.20
2023-03-20T02:56:57.314Z,9.20
2023-03-20T02:59:40.665Z,9.30
2023-03-20T03:02:12.696Z,9.20
2023-03-20T03:04:51.902Z,9.30
2023-03-20T03:07:22.349Z,9.30
2023-03-20T03:10:13.890Z,9.30
2023-03-20T03:12:43.437Z,9.40
2023-03-20T03:15:27.777Z,9.40
2023-03-20T03:17:58.136Z,9.40
2023-03-20T03:20:37.388Z,9.40
2023-03-20T03:23:05.365Z,9.40
2023-03-20T03:25:39.877Z,9.50
2023-03-20T03:28:38.830Z,9.50
2023-03-20T03:31:08.673Z,9.50
2023-03-20T03:33:39.500Z,9.50
2023-03-20T03:36:25.417Z,9.50
2023-03-20T03:39:15.408Z,9.40
2023-03-20T03:42:17.227Z,9.40
2023-03-20T03:45:03.091Z,9.30
2023-03-20T03:47:35.266Z,9.30
2023-03-20T03:50:18.932Z,9.40
2023-03-20T03:52:47.587Z,9.30
2023-03-20T03:55:24.645Z,9.30
2023-03-20T03:58:24.250Z,9.30
2023-03-20T04:00:54.712Z,9.30
2023-03-20T04:03:24.288Z,9.30
2023-03-20T04:05:53.457Z,9.30
2023-03-20T04:08:20.111Z,9.30
2023-03-20T04:10:46.742Z,9.30
2023-03-20T04:13:13.417Z,9.40
2023-03-20T04:15:39.990Z,9.40
2023-03-20T04:18:06.682Z,9.40
2023-03-20T04:20:33.768Z,9.50
2023-03-20T04:23:02.064Z,9.50
2023-03-20T04:25:28.730Z,9.50
2023-03-20T04:27:55.716Z,9.50
2023-03-20T04:30:22.844Z,9.50
2023-03-20T04:32:49.462Z,9.50
2023-03-20T04:35:16.217Z,9.50
2023-03-20T04:37:42.828Z,9.50
2023-03-20T04:40:10.669Z,9.50
2023-03-20T04:42:37.258Z,9.50
2023-03-20T04:45:04.378Z,9.50
2023-03-20T04:47:31.084Z,9.50
2023-03-20T04:49:57.713Z,9.50
2023-03-20T04:52:24.464Z,9.50
2023-03-20T04:54:51.110Z,9.50
2023-03-20T04:57:17.817Z,9.50
2023-03-20T04:59:44.459Z,9.50
2023-03-20T05:02:14.806Z,9.50
2023-03-20T05:04:44.438Z,9.50
2023-03-20T05:07:11.079Z,9.50
2023-03-20T05:09:37.702Z,9.50
2023-03-20T05:12:04.704Z,9.50
2023-03-20T05:14:31.481Z,9.50
2023-03-20T05:16:58.195Z,9.40
2023-03-20T05:19:25.045Z,9.50
2023-03-20T05:21:51.662Z,9.50
2023-03-20T05:24:18.336Z,9.50
2023-03-20T05:26:44.948Z,9.60
2023-03-20T05:29:11.689Z,9.60
2023-03-20T05:31:38.832Z,9.50
2023-03-20T05:34:05.609Z,9.50
2023-03-20T05:36:32.254Z,9.50
2023-03-20T05:38:59.029Z,9.60
2023-03-20T05:41:25.789Z,9.50
2023-03-20T05:43:52.367Z,9.50
2023-03-20T05:46:19.013Z,9.60
2023-03-20T05:48:45.947Z,9.60
2023-03-20T05:51:12.506Z,9.60
2023-03-20T05:53:39.065Z,9.70
2023-03-20T05:56:06.463Z,9.70
2023-03-20T05:58:33.218Z,9.70
2023-03-20T06:00:59.767Z,9.70
2023-03-20T06:03:26.419Z,9.70
2023-03-20T06:05:53.081Z,9.80
2023-03-20T06:08:19.672Z,9.70
2023-03-20T06:10:46.375Z,9.60
2023-03-20T06:13:13.032Z,9.50
2023-03-20T06:15:39.862Z,9.50
2023-03-20T06:18:06.628Z,9.50
2023-03-20T06:20:33.323Z,9.40
2023-03-20T06:23:00.034Z,9.40
2023-03-20T06:25:26.809Z,9.40
2023-03-20T06:27:53.917Z,9.40
2023-03-20T06:30:20.975Z,9.50
2023-03-20T06:32:48.187Z,9.50
2023-03-20T06:35:14.879Z,9.50
2023-03-20T06:37:41.470Z,9.50
2023-03-20T06:40:08.543Z,9.50
2023-03-20T06:42:35.487Z,9.50
2023-03-20T06:45:02.184Z,9.50
2023-03-20T06:47:28.867Z,9.50
2023-03-20T06:49:55.481Z,9.50
2023-03-20T06:52:22.643Z,9.60
2023-03-20T06:54:50.950Z,9.50
2023-03-20T06:57:18.187Z,9.50
2023-03-20T06:59:44.865Z,9.50
2023-03-20T07:02:12.040Z,9.50
2023-03-20T07:04:39.111Z,9.60
2023-03-20T07:07:05.929Z,9.60
2023-03-20T07:09:33.225Z,9.60
2023-03-20T07:12:00.520Z,9.60
2023-03-20T07:14:27.196Z,9.60
2023-03-20T07:16:54.803Z,9.60
2023-03-20T07:19:22.014Z,9.60
2023-03-20T07:21:48.920Z,9.60
2023-03-20T07:24:15.542Z,9.60
2023-03-20T07:26:42.198Z,9.70
2023-03-20T07:29:08.927Z,9.70
2023-03-20T07:31:35.633Z,9.80
2023-03-20T07:34:02.281Z,9.70
2023-03-20T07:36:29.039Z,9.70
2023-03-20T07:38:55.837Z,9.80
2023-03-20T07:41:22.457Z,9.90
2023-03-20T07:43:49.079Z,9.90
2023-03-20T07:46:15.772Z,10.00
2023-03-20T07:48:42.441Z,10.00
2023-03-20T07:51:09.116Z,10.10
2023-03-20T07:53:35.713Z,10.20
2023-03-20T07:56:02.503Z,10.20
2023-03-20T07:58:29.104Z,10.20
2023-03-20T08:00:58.402Z,10.20
2023-03-20T08:03:25.207Z,10.30
2023-03-20T08:05:51.989Z,10.40
2023-03-20T08:08:18.808Z,10.50
2023-03-20T08:10:45.515Z,10.50
2023-03-20T08:13:12.163Z,10.60
2023-03-20T08:15:39.316Z,10.60
2023-03-20T08:18:06.254Z,10.70
2023-03-20T08:20:33.046Z,10.80
2023-03-20T08:22:59.637Z,10.80
2023-03-20T08:25:26.264Z,10.80
2023-03-20T08:27:52.913Z,10.80
2023-03-20T08:30:19.628Z,10.80
2023-03-20T08:32:46.310Z,10.80
2023-03-20T08:35:29.629Z,10.80
2023-03-20T08:37:59.021Z,10.90
2023-03-20T08:40:25.732Z,10.90
2023-03-20T08:42:52.362Z,11.00
2023-03-20T08:45:19.135Z,11.00
2023-03-20T08:47:48.757Z,11.00
2023-03-20T08:50:16.574Z,11.00
2023-03-20T08:52:44.081Z,11.00
2023-03-20T08:55:11.947Z,10.90
2023-03-20T08:57:38.786Z,11.00
2023-03-20T09:00:07.256Z,11.10
2023-03-20T09:02:34.388Z,11.00
2023-03-20T09:05:01.404Z,11.10
2023-03-20T09:07:28.156Z,11.10
2023-03-20T09:09:54.788Z,11.20
2023-03-20T09:12:21.692Z,11.30
2023-03-20T09:14:48.645Z,11.40
2023-03-20T09:17:18.020Z,11.50
2023-03-20T09:19:45.209Z,11.50
2023-03-20T09:22:18.156Z,11.50
2023-03-20T09:24:45.603Z,11.50
2023-03-20T09:27:13.947Z,11.60
2023-03-20T09:29:41.528Z,11.70
2023-03-20T09:32:14.375Z,11.70
2023-03-20T09:34:40.973Z,11.70
2023-03-20T09:37:07.868Z,11.80
2023-03-20T09:39:35.181Z,11.80
2023-03-20T09:42:38.441Z,11.80
2023-03-20T09:45:33.361Z,11.80
2023-03-20T09:48:08.869Z,11.80
2023-03-20T09:50:58.107Z,11.70
2023-03-20T09:53:34.388Z,11.60
2023-03-20T09:56:01.718Z,11.60
2023-03-20T09:58:34.058Z,11.50
2023-03-20T10:01:04.150Z,11.50
2023-03-20T10:03:48.098Z,11.60
2023-03-20T10:06:16.802Z,11.70
2023-03-20T10:08:45.268Z,11.80
2023-03-20T10:11:33.421Z,11.80
2023-03-20T10:14:18.535Z,11.80
2023-03-20T10:17:40.480Z,11.90
2023-03-20T10:20:32.982Z,12.00
2023-03-20T10:23:22.282Z,12.00
2023-03-20T10:25:56.409Z,12.00
2023-03-20T10:28:31.859Z,12.00
2023-03-20T10:31:16.466Z,12.10
2023-03-20T10:33:58.399Z,12.00
2023-03-20T10:36:39.926Z,12.00
2023-03-20T10:39:16.601Z,12.10
2023-03-20T10:41:49.403Z,12.30
2023-03-20T10:44:27.527Z,12.30
2023-03-20T10:46:57.179Z,12.50
2023-03-20T10:49:40.148Z,12.60
2023-03-20T10:52:14.899Z,12.60
2023-03-20T10:54:47.450Z,12.70
2023-03-20T10:57:37.184Z,12.80
2023-03-20T11:00:05.271Z,12.80
2023-03-20T11:02:32.408Z,12.80
2023-03-20T11:05:21.268Z,12.90
2023-03-20T11:07:52.771Z,12.90
2023-03-20T11:10:19.428Z,12.90
2023-03-20T11:12:48.418Z,12.90
2023-03-20T11:15:22.289Z,13.00
2023-03-20T11:18:04.076Z,12.90
2023-03-20T11:20:46.922Z,13.00
2023-03-20T11:23:32.421Z,12.90
2023-03-20T11:26:06.659Z,13.00
2023-03-20T11:28:38.901Z,13.20
2023-03-20T11:31:11.385Z,13.30
2023-03-20T11:33:41.258Z,13.50
2023-03-20T11:36:22.885Z,13.60
2023-03-20T11:38:50.847Z,13.60
2023-03-20T11:41:22.627Z,13.60
2023-03-20T11:43:49.268Z,13.60
2023-03-20T11:46:16.189Z,13.60
2023-03-20T11:48:48.152Z,13.70
2023-03-20T11:51:21.350Z,13.80
2023-03-20T11:53:48.338Z,13.70
2023-03-20T11:56:23.850Z,13.70
2023-03-20T11:59:09.137Z,13.70
2023-03-20T12:01:49.050Z,13.70
2023-03-20T12:04:27.441Z,13.70
2023-03-20T12:07:12.645Z,13.70
2023-03-20T12:09:56.006Z,13.70
2023-03-20T12:12:48.832Z,13.60
2023-03-20T12:15:41.608Z,13.60
2023-03-20T12:18:41.269Z,13.60
2023-03-20T12:21:16.763Z,13.50
2023-03-20T12:24:04.705Z,13.70
2023-03-20T12:26:36.140Z,13.70
2023-03-20T12:29:14.928Z,13.80
2023-03-20T12:31:50.491Z,13.80
2023-03-20T12:34:42.222Z,13.80
2023-03-20T12:37:13.546Z,13.80
2023-03-20T12:39:48.460Z,13.90
2023-03-20T12:42:25.190Z,14.00
2023-03-20T12:45:33.157Z,14.00
2023-03-20T12:48:18.126Z,14.00
2023-03-20T12:51:00.292Z,14.00
2023-03-20T12:53:27.068Z,14.00
2023-03-20T12:56:04.825Z,14.00
2023-03-20T12:58:34.236Z,14.00
2023-03-20T13:01:06.173Z,14.10
2023-03-20T13:03:57.763Z,14.10
2023-03-20T13:06:50.680Z,14.20
2023-03-20T13:09:36.360Z,14.20
2023-03-20T13:12:07.717Z,14.20
2023-03-20T13:14:43.624Z,14.20
2023-03-20T13:17:18.992Z,14.30
2023-03-20T13:20:00.665Z,14.20
2023-03-20T13:22:37.830Z,14.30
2023-03-20T13:25:43.450Z,14.10
2023-03-20T13:28:22.355Z,14.10
2023-03-20T13:30:56.888Z,14.00
2023-03-20T13:33:46.971Z,14.10
2023-03-20T13:36:45.829Z,14.20
2023-03-20T13:39:24.612Z,14.20
2023-03-20T13:41:53.051Z,14.30
2023-03-20T13:44:22.650Z,14.40
2023-03-20T13:46:59.604Z,14.40
2023-03-20T13:49:42.120Z,14.30
2023-03-20T13:52:13.238Z,14.40
2023-03-20T13:55:14.413Z,14.40
2023-03-20T13:58:18.553Z,14.50
2023-03-20T14:01:47.304Z,14.40
2023-03-20T14:04:19.913Z,14.50
2023-03-20T14:06:57.529Z,14.50
2023-03-20T14:09:33.555Z,14.50
2023-03-20T14:12:10.091Z,14.60
2023-03-20T14:14:53.521Z,14.50
2023-03-20T14:17:30.917Z,14.60
2023-03-20T14:20:09.220Z,14.60
2023-03-20T14:22:38.889Z,14.70
2023-03-20T14:25:09.120Z,14.60
2023-03-20T14:27:53.381Z,14.60
2023-03-20T14:30:32.000Z,14.60
2023-03-20T14:33:19.587Z,14.60
2023-03-20T14:36:10.734Z,14.60
2023-03-20T14:38:59.974Z,14.60
2023-03-20T14:42:05.753Z,14.70
2023-03-20T14:44:46.450Z,14.70
2023-03-20T14:47:45.818Z,14.70
2023-03-20T14:50:23.314Z,14.80
2023-03-20T14:52:59.532Z,14.80
2023-03-20T14:55:28.005Z,14.90
2023-03-20T14:57:57.207Z,14.90
2023-03-20T15:00:33.476Z,14.90
2023-03-20T15:03:10.249Z,15.00
2023-03-20T15:05:38.930Z,15.00
2023-03-20T15:08:10.593Z,15.10
2023-03-20T15:10:46.612Z,15.10
2023-03-20T15:13:15.192Z,15.20
2023-03-20T15:16:12.517Z,15.10
2023-03-20T15:18:45.425Z,15.20
2023-03-20T15:21:15.876Z,15.10
2023-03-20T15:23:44.106Z,15.10
2023-03-20T15:26:12.020Z,15.10
2023-03-20T15:28:39.195Z,15.00
2023-03-20T15:31:07.064Z,15.00
2023-03-20T15:33:36.746Z,14.90
2023-03-20T15:36:21.347Z,14.80
2023-03-20T15:38:49.018Z,14.60
2023-03-20T15:41:36.455Z,14.60
2023-03-20T15:44:19.138Z,14.70
2023-03-20T15:47:04.247Z,14.80
2023-03-20T15:49:32.582Z,14.80
2023-03-20T15:52:15.895Z,14.70
2023-03-20T15:54:43.494Z,14.70
2023-03-20T15:57:16.380Z,14.80
2023-03-20T15:59:43.328Z,14.70
2023-03-20T16:02:12.694Z,14.70
2023-03-20T16:04:50.304Z,14.70
2023-03-20T16:07:43.111Z,14.70
2023-03-20T16:10:20.914Z,14.60
2023-03-20T16:12:55.138Z,14.60
2023-03-20T16:15:25.561Z,14.60
2023-03-20T16:17:56.179Z,14.50
2023-03-20T16:20:25.059Z,14.50
2023-03-20T16:22:55.398Z,14.50
2023-03-20T16:25:22.216Z,14.50
2023-03-20T16:27:51.368Z,14.50
2023-03-20T16:30:23.466Z,14.40
2023-03-20T16:32:57.255Z,14.30
2023-03-20T16:35:32.111Z,14.40
2023-03-20T16:38:01.255Z,14.40
2023-03-20T16:40:28.516Z,14.40
2023-03-20T16:42:57.142Z,14.40
2023-03-20T16:45:29.557Z,14.40
2023-03-20T16:48:11.808Z,14.40
2023-03-20T16:50:48.232Z,14.30
2023-03-20T16:53:17.404Z,14.30
2023-03-20T16:55:46.159Z,14.30
2023-03-20T16:58:21.956Z,14.30
2023-03-20T17:01:01.697Z,14.30
2023-03-20T17:03:36.985Z,14.30
2023-03-20T17:06:25.889Z,14.30
2023-03-20T17:09:01.495Z,14.20
2023-03-20T17:11:32.765Z,14.10
2023-03-20T17:13:59.679Z,14.10
2023-03-20T17:16:28.922Z,14.00
2023-03-20T17:19:07.418Z,13.90
2023-03-20T17:21:34.464Z,13.90
2023-03-20T17:24:01.123Z,13.90
2023-03-20T17:26:28.286Z,13.90
2023-03-20T17:28:55.483Z,13.80
2023-03-20T17:31:22.182Z,13.80
2023-03-20T17:33:48.850Z,13.70
2023-03-20T17:36:28.319Z,13.50
2023-03-20T17:38:56.192Z,13.60
2023-03-20T17:41:26.278Z,13.60
2023-03-20T17:43:53.834Z,13.50
2023-03-20T17:46:24.205Z,13.20
2023-03-20T17:48:52.942Z,13.10
2023-03-20T17:51:19.620Z,13.10
2023-03-20T17:53:46.243Z,13.00
2023-03-20T17:56:14.754Z,13.00
2023-03-20T17:58:44.517Z,13.00
2023-03-20T18:01:12.057Z,13.00
2023-03-20T18:03:38.965Z,13.00
2023-03-20T18:06:06.848Z,13.00
2023-03-20T18:08:33.826Z,12.80
2023-03-20T18:11:00.456Z,12.70
2023-03-20T18:13:27.187Z,12.60
2023-03-20T18:15:56.798Z,12.40
2023-03-20T18:18:24.164Z,12.30
2023-03-20T18:20:52.259Z,12.10
2023-03-20T18:23:18.944Z,12.10
2023-03-20T18:25:45.559Z,12.00
2023-03-20T18:28:18.384Z,12.00
2023-03-20T18:30:45.136Z,11.90
2023-03-20T18:33:12.395Z,11.90
2023-03-20T18:35:39.201Z,11.90
2023-03-20T18:38:06.197Z,11.80
2023-03-20T18:40:36.134Z,11.80
2023-03-20T18:43:03.458Z,11.70
2023-03-20T18:45:31.699Z,11.70
2023-03-20T18:47:59.475Z,11.80
2023-03-20T18:50:31.848Z,11.70
2023-03-20T18:52:59.477Z,11.60
2023-03-20T18:55:28.204Z,11.50
2023-03-20T18:57:55.944Z,11.60
2023-03-20T19:00:42.066Z,11.60
2023-03-20T19:03:10.953Z,11.60
2023-03-20T19:05:38.467Z,11.50
2023-03-20T19:08:05.716Z,11.50
2023-03-20T19:10:37.972Z,11.50
2023-03-20T19:13:06.925Z,11.40
2023-03-20T19:15:35.943Z,11.30
2023-03-20T19:18:17.671Z,11.20
2023-03-20T19:20:49.058Z,11.20
2023-03-20T19:23:19.458Z,11.20
2023-03-20T19:25:48.815Z,11.10
2023-03-20T19:28:21.939Z,11.10
2023-03-20T19:30:51.219Z,11.00
2023-03-20T19:33:18.373Z,11.00
2023-03-20T19:36:02.474Z,11.00
2023-03-20T19:38:30.691Z,10.80
2023-03-20T19:40:58.020Z,10.90
2023-03-20T19:43:24.757Z,10.90
2023-03-20T19:45:57.193Z,10.80
2023-03-20T19:48:43.329Z,10.70
2023-03-20T19:51:33.301Z,10.60
2023-03-20T19:54:00.138Z,10.50
2023-03-20T19:56:27.080Z,10.40
2023-03-20T19:58:54.101Z,10.30
2023-03-20T20:01:25.178Z,10.30
2023-03-20T20:03:53.433Z,10.20
2023-03-20T20:06:22.229Z,10.10
2023-03-20T20:08:50.469Z,10.10
2023-03-20T20:11:18.591Z,10.10
2023-03-20T20:14:04.677Z,10.00
2023-03-20T20:16:33.088Z,9.90
2023-03-20T20:18:59.754Z,9.80
2023-03-20T20:24:15.927Z,9.80
2023-03-20T20:26:53.295Z,9.70
2023-03-20T20:29:21.679Z,9.70
2023-03-20T20:31:48.461Z,9.60
2023-03-20T20:35:14.846Z,9.50
2023-03-20T20:39:49.085Z,9.60
2023-03-20T20:42:20.401Z,9.60
2023-03-20T20:44:47.316Z,9.60
2023-03-20T20:47:14.143Z,9.60
2023-03-20T20:49:40.898Z,9.60
2023-03-20T20:52:08.355Z,9.50
2023-03-20T20:54:35.012Z,9.50
2023-03-20T20:57:02.006Z,9.50
2023-03-20T20:59:28.856Z,9.40
2023-03-20T21:01:55.788Z,9.40
2023-03-20T21:04:22.495Z,9.30
2023-03-20T21:07:10.036Z,9.30
2023-03-20T21:09:36.061Z,9.30
2023-03-20T21:12:03.774Z,9.10
2023-03-20T21:14:30.792Z,9.00
2023-03-20T21:17:00.851Z,8.90
2023-03-20T21:19:34.064Z,8.90
2023-03-20T21:22:01.125Z,8.80
2023-03-20T21:24:33.069Z,8.80
2023-03-20T21:27:06.767Z,8.70
2023-03-20T21:29:34.651Z,8.60
2023-03-20T21:32:01.392Z,8.60
2023-03-20T21:34:29.004Z,8.60
2023-03-20T21:36:57.824Z,8.70
2023-03-20T21:39:27.464Z,8.70
2023-03-20T21:41:54.469Z,8.70
2023-03-20T21:44:56.097Z,8.70
2023-03-20T22:04:45.097Z,8.40
2023-03-20T22:07:18.926Z,8.40
2023-03-20T22:12:56.288Z,8.30
2023-03-20T22:15:33.726Z,8.20
2023-03-20T22:27:08.604Z,8.10
2023-03-20T22:32:18.518Z,8.00
2023-03-20T22:35:15.799Z,8.10
2023-03-20T22:43:09.539Z,8.00
2023-03-20T22:45:38.416Z,8.00
2023-03-20T22:48:11.570Z,7.90
2023-03-20T22:50:40.148Z,8.00
2023-03-20T22:53:06.920Z,7.90
2023-03-20T22:55:33.572Z,7.90
2023-03-20T22:58:07.290Z,7.80
2023-03-20T23:00:36.142Z,7.80
2023-03-20T23:03:19.995Z,7.80
2023-03-20T23:05:51.925Z,7.70
2023-03-20T23:08:18.585Z,7.70
2023-03-20T23:10:48.120Z,7.70
2023-03-20T23:13:15.490Z,7.60
2023-03-20T23:15:44.534Z,7.50
2023-03-20T23:18:11.574Z,7.50
2023-03-20T23:20:38.444Z,7.40
2023-03-20T23:23:05.175Z,7.40
2023-03-20T23:25:39.201Z,7.40
2023-03-20T23:28:09.491Z,7.30
2023-03-20T23:30:45.385Z,7.20
2023-03-20T23:33:14.760Z,7.10
2023-03-20T23:35:41.439Z,7.00
2023-03-20T23:38:08.035Z,7.00
2023-03-20T23:40:35.268Z,7.00
2023-03-20T23:43:01.930Z,7.00
2023-03-20T23:45:28.761Z,7.00
2023-03-20T23:47:55.581Z,7.10
2023-03-20T23:50:42.571Z,7.00
2023-03-20T23:53:19.781Z,7.10
2023-03-20T23:55:52.753Z,7.10
2023-03-20T23:58:20.230Z,7.10
